Time;durP1;ratioP1;P1;durP2;ratioP2;P2;SDS_P1;SDS_P2;PMS_P1;PMS_P2;Temp;Humidity;BMP_temperature;BMP_pressure;BME280_temperature;BME280_humidity;BME280_pressure;Samples;Min_cycle;Max_cycle;Signal;HPM_P1;HPM_P2
2022/03/12 20:35:30;;;;;;;0.40;0.40;;;;;;;;;;5107998;27;1361240;-84
2022/03/12 20:37:55;;;;;;;0.47;0.47;;;;;;;;;;5132144;28;20031;-85
2022/03/12 20:40:23;;;;;;;0.70;0.70;;;;;;;;;;5131587;28;20042;-86
2022/03/12 20:42:48;;;;;;;3.08;1.40;;;;;;;;;;5131659;28;20455;-85
2022/03/12 20:45:15;;;;;;;0.30;0.30;;;;;;;;;;5131069;28;20034;-85
2022/03/12 20:47:44;;;;;;;0.30;0.30;;;;;;;;;;5130795;28;20019;-86
2022/03/12 20:50:10;;;;;;;1.65;1.17;;;;;;;;;;5132243;27;20023;-83
2022/03/12 20:52:36;;;;;;;1.30;1.25;;;;;;;;;;5130684;28;20463;-85
2022/03/12 20:55:03;;;;;;;0.30;0.30;;;;;;;;;;5130484;28;20165;-87
2022/03/12 20:57:29;;;;;;;0.45;0.45;;;;;;;;;;5130198;28;20018;-84
2022/03/12 20:59:54;;;;;;;0.88;0.88;;;;;;;;;;5130715;28;20015;-86
2022/03/12 21:02:19;;;;;;;0.38;0.38;;;;;;;;;;5131142;28;20023;-84
2022/03/12 21:04:45;;;;;;;0.30;0.30;;;;;;;;;;5131045;28;20023;-87
2022/03/12 21:07:10;;;;;;;1.80;1.70;;;;;;;;;;5125196;28;20047;-84
2022/03/12 21:09:35;;;;;;;1.55;0.93;;;;;;;;;;5110973;28;20420;-85
2022/03/12 21:12:06;;;;;;;0.40;0.40;;;;;;;;;;5109800;28;20016;-85
2022/03/12 21:14:33;;;;;;;0.45;0.45;;;;;;;;;;5110095;28;20028;-94
2022/03/12 21:17:06;;;;;;;1.23;0.93;;;;;;;;;;5111459;28;20084;-85
2022/03/12 21:19:31;;;;;;;1.85;0.68;;;;;;;;;;5108698;28;20440;-83
2022/03/12 21:21:57;;;;;;;0.65;0.65;;;;;;;;;;5108935;28;20020;-84
2022/03/12 21:24:23;;;;;;;1.10;1.10;;;;;;;;;;5109295;28;20020;-85
2022/03/12 21:26:51;;;;;;;0.40;0.40;;;;;;;;;;5109131;28;20111;-84
2022/03/12 21:29:20;;;;;;;0.60;0.60;;;;;;;;;;5108842;28;20077;-84
2022/03/12 21:31:46;;;;;;;0.32;0.32;;;;;;;;;;5109855;28;20020;-84
2022/03/12 21:34:11;;;;;;;0.30;0.30;;;;;;;;;;5108634;28;20058;-85
2022/03/12 21:36:38;;;;;;;0.30;0.30;;;;;;;;;;5109522;28;20020;-89
2022/03/12 21:39:03;;;;;;;1.25;1.15;;;;;;;;;;5109223;28;20019;-84
2022/03/12 21:41:28;;;;;;;0.65;0.65;;;;;;;;;;5103238;28;20108;-85
2022/03/12 21:43:54;;;;;;;0.82;0.82;;;;;;;;;;5105414;28;20020;-86
2022/03/12 21:46:20;;;;;;;0.30;0.30;;;;;;;;;;5098557;28;20028;-84
2022/03/12 21:48:45;;;;;;;0.40;0.40;;;;;;;;;;5095350;28;20609;-86
2022/03/12 21:51:12;;;;;;;0.77;0.77;;;;;;;;;;5095208;28;20050;-86
2022/03/12 21:53:38;;;;;;;0.60;0.60;;;;;;;;;;5095213;28;20021;-85
2022/03/12 21:56:04;;;;;;;0.30;0.30;;;;;;;;;;5095564;28;20053;-86
2022/03/12 21:58:29;;;;;;;0.30;0.30;;;;;;;;;;5095259;28;20017;-87
2022/03/12 22:00:59;;;;;;;0.95;0.95;;;;;;;;;;5096655;28;20016;-86
2022/03/12 22:03:24;;;;;;;0.60;0.60;;;;;;;;;;5095291;28;20055;-84
2022/03/12 22:05:51;;;;;;;1.38;0.75;;;;;;;;;;5095300;28;20047;-84
2022/03/12 22:08:16;;;;;;;0.77;0.77;;;;;;;;;;5095001;28;20017;-86
2022/03/12 22:10:42;;;;;;;0.30;0.30;;;;;;;;;;5096017;28;20020;-87
2022/03/12 22:13:08;;;;;;;0.30;0.30;;;;;;;;;;5094688;28;20020;-87
2022/03/12 22:15:34;;;;;;;0.30;0.30;;;;;;;;;;5095015;28;20111;-84
2022/03/12 22:18:01;;;;;;;1.13;1.05;;;;;;;;;;5095710;28;20068;-85
2022/03/12 22:20:28;;;;;;;0.30;0.30;;;;;;;;;;5095820;28;20024;-84
2022/03/12 22:22:57;;;;;;;1.17;1.17;;;;;;;;;;5094936;28;20080;-83
2022/03/12 22:25:23;;;;;;;0.40;0.40;;;;;;;;;;5094327;28;20024;-84
2022/03/12 22:27:49;;;;;;;0.50;0.50;;;;;;;;;;5094524;28;20503;-83
2022/03/12 22:30:15;;;;;;;1.67;1.58;;;;;;;;;;5094443;28;20020;-85
2022/03/12 22:32:40;;;;;;;1.55;1.55;;;;;;;;;;5094147;28;20020;-85
2022/03/12 22:35:06;;;;;;;0.75;0.75;;;;;;;;;;5093941;28;20083;-84
2022/03/12 22:37:32;;;;;;;1.08;1.08;;;;;;;;;;5094146;28;20049;-83
2022/03/12 22:39:58;;;;;;;0.40;0.40;;;;;;;;;;5093934;28;20016;-85
2022/03/12 22:42:28;;;;;;;0.73;0.73;;;;;;;;;;5094032;28;20559;-85
2022/03/12 22:44:54;;;;;;;2.35;2.05;;;;;;;;;;5093822;28;20028;-85
2022/03/12 22:47:20;;;;;;;0.70;0.70;;;;;;;;;;5094008;28;20032;-84
2022/03/12 22:49:45;;;;;;;0.50;0.50;;;;;;;;;;5093927;28;20376;-84
2022/03/12 22:52:11;;;;;;;0.40;0.40;;;;;;;;;;5093912;28;20019;-85
2022/03/12 22:54:36;;;;;;;0.30;0.30;;;;;;;;;;5093729;28;20028;-86
2022/03/12 22:57:03;;;;;;;0.40;0.40;;;;;;;;;;5092501;28;20476;-85
2022/03/12 22:59:28;;;;;;;0.43;0.43;;;;;;;;;;5094262;28;20020;-85
2022/03/12 23:01:55;;;;;;;0.52;0.52;;;;;;;;;;5093724;28;20023;-86
2022/03/12 23:10:01;;;;;;;0.63;0.63;;;;;;;;;;5075092;28;20040;-84
2022/03/12 23:12:26;;;;;;;0.30;0.30;;;;;;;;;;5073797;28;20548;-82
2022/03/12 23:14:53;;;;;;;0.40;0.40;;;;;;;;;;5086632;28;20181;-87
2022/03/12 23:17:22;;;;;;;1.67;1.27;;;;;;;;;;5094756;28;20020;-87
2022/03/12 23:19:48;;;;;;;1.25;1.25;;;;;;;;;;5091312;28;20097;-87
2022/03/12 23:22:21;;;;;;;0.30;0.30;;;;;;;;;;5074173;28;20024;-85
2022/03/12 23:24:51;;;;;;;7.53;1.50;;;;;;;;;;5074258;28;20024;-86
2022/03/12 23:27:28;;;;;;;0.50;0.50;;;;;;;;;;5074338;28;20012;-86
2022/03/12 23:29:55;;;;;;;0.40;0.40;;;;;;;;;;5073852;28;20024;-86
2022/03/12 23:32:20;;;;;;;0.38;0.38;;;;;;;;;;5074142;28;20032;-87
2022/03/12 23:34:46;;;;;;;0.70;0.70;;;;;;;;;;5087127;28;20052;-85
2022/03/12 23:37:11;;;;;;;0.73;0.73;;;;;;;;;;5086146;28;20503;-85
2022/03/12 23:39:36;;;;;;;0.88;0.88;;;;;;;;;;5078053;28;20016;-87
2022/03/12 23:42:03;;;;;;;1.40;1.33;;;;;;;;;;5094022;28;20041;-85
2022/03/12 23:44:29;;;;;;;0.47;0.47;;;;;;;;;;5093759;28;20032;-85
2022/03/12 23:46:56;;;;;;;0.40;0.40;;;;;;;;;;5093805;28;20080;-86
2022/03/12 23:49:22;;;;;;;0.50;0.50;;;;;;;;;;5094840;28;20070;-85
2022/03/12 23:52:10;;;;;;;0.85;0.80;;;;;;;;;;5079652;28;20404;-86
2022/03/12 23:54:36;;;;;;;0.63;0.63;;;;;;;;;;5090458;28;20024;-84
2022/03/12 23:57:03;;;;;;;3.13;1.10;;;;;;;;;;5073958;28;20024;-88
2022/03/12 23:59:32;;;;;;;0.50;0.50;;;;;;;;;;5078948;28;20028;-86
